Time;durP1;ratioP1;P1;durP2;ratioP2;P2;SDS_P1;SDS_P2;PMS_P1;PMS_P2;Temp;Humidity;BMP_temperature;BMP_pressure;BME280_temperature;BME280_humidity;BME280_pressure;Samples;Min_cycle;Max_cycle;Signal;HPM_P1;HPM_P2
2021/12/11 00:02:15;;;;;;;12.80;8.52;;;5.70;99.90;;;;;;4986695;28;20044;-80
2021/12/11 00:04:44;;;;;;;12.55;8.50;;;5.70;99.90;;;;;;5034971;28;20366;-80
2021/12/11 00:07:15;;;;;;;12.98;8.52;;;5.70;99.90;;;;;;5034888;28;20105;-80
2021/12/11 00:09:47;;;;;;;10.57;7.72;;;5.70;99.90;;;;;;5034910;28;20068;-80
2021/12/11 00:12:41;;;;;;;14.05;8.07;;;5.70;99.90;;;;;;5034278;28;20033;-81
2021/12/11 00:15:12;;;;;;;10.32;7.55;;;5.70;99.90;;;;;;5034010;28;20035;-80
2021/12/11 00:17:38;;;;;;;12.63;8.25;;;5.70;99.90;;;;;;5034287;28;20386;-80
2021/12/11 00:20:14;;;;;;;12.18;7.47;;;5.70;99.90;;;;;;5034432;28;20033;-78
2021/12/11 00:22:41;;;;;;;11.10;7.75;;;5.80;99.90;;;;;;5033329;28;20461;-79
2021/12/11 00:25:09;;;;;;;11.32;8.25;;;5.80;99.90;;;;;;5033202;28;20211;-81
2021/12/11 00:27:39;;;;;;;11.90;7.93;;;5.80;99.90;;;;;;5034351;28;20104;-80
2021/12/11 00:30:07;;;;;;;15.23;7.45;;;5.80;99.90;;;;;;5034296;28;20036;-81
2021/12/11 00:32:36;;;;;;;10.02;7.30;;;5.80;99.90;;;;;;5033922;28;20132;-81
2021/12/11 00:35:10;;;;;;;13.05;8.18;;;5.80;99.90;;;;;;5034191;28;20512;-82
2021/12/11 00:37:37;;;;;;;10.18;6.65;;;5.80;99.90;;;;;;5034067;28;20026;-82
2021/12/11 00:40:14;;;;;;;15.43;7.68;;;5.80;99.90;;;;;;5034307;28;20026;-81
2021/12/11 00:42:50;;;;;;;10.98;7.82;;;5.80;99.90;;;;;;5032823;28;20017;-81
2021/12/11 00:45:20;;;;;;;11.85;7.63;;;5.80;99.90;;;;;;5032855;28;20033;-77
2021/12/11 00:48:00;;;;;;;8.88;6.45;;;5.80;99.90;;;;;;5033615;28;20029;-81
2021/12/11 00:50:30;;;;;;;10.85;7.78;;;5.80;99.90;;;;;;5033764;28;20044;-74
2021/12/11 00:53:16;;;;;;;13.40;7.53;;;5.80;99.90;;;;;;5033923;28;20053;-81
2021/12/11 00:55:46;;;;;;;16.52;8.45;;;5.80;99.90;;;;;;5033612;28;20053;-73
2021/12/11 00:58:19;;;;;;;24.75;11.07;;;5.80;99.90;;;;;;5033431;28;20021;-82
2021/12/11 01:00:45;;;;;;;19.70;10.60;;;5.80;99.90;;;;;;5033730;28;20382;-81
2021/12/11 01:03:15;;;;;;;10.25;6.38;;;5.80;99.90;;;;;;5033539;28;20026;-81
2021/12/11 01:05:46;;;;;;;11.57;6.63;;;5.80;99.90;;;;;;5033855;28;20028;-76
2021/12/11 01:08:31;;;;;;;20.13;9.48;;;5.80;99.90;;;;;;5033661;28;20028;-74
2021/12/11 01:11:27;;;;;;;16.23;8.05;;;5.80;99.90;;;;;;5033626;28;20025;-82
2021/12/11 01:14:29;;;;;;;6.50;4.85;;;5.80;99.90;;;;;;5025168;28;20038;-80
2021/12/11 01:17:02;;;;;;;;;;;5.90;99.90;;;;;;5033418;28;20021;-79
2021/12/11 01:19:36;;;;;;;8.02;5.10;;;6.00;99.90;;;;;;5033029;28;20003;-81
2021/12/11 01:22:19;;;;;;;11.18;5.85;;;6.00;99.90;;;;;;5033346;28;20390;-82
2021/12/11 01:24:47;;;;;;;10.65;4.78;;;6.10;99.90;;;;;;5031967;28;20080;-82
2021/12/11 01:27:17;;;;;;;6.22;4.35;;;6.20;99.90;;;;;;5033479;28;20399;-81
2021/12/11 01:29:45;;;;;;;5.88;4.32;;;6.30;99.90;;;;;;5033210;28;20040;-79
2021/12/11 01:32:12;;;;;;;6.40;4.55;;;6.40;99.90;;;;;;5033243;28;20048;-82
2021/12/11 01:34:38;;;;;;;7.75;5.10;;;6.40;99.90;;;;;;5033322;28;20021;-79
2021/12/11 01:37:05;;;;;;;8.63;4.03;;;6.40;99.90;;;;;;5032678;28;20024;-82
2021/12/11 01:39:36;;;;;;;8.57;5.65;;;6.40;99.90;;;;;;5032891;28;20025;-81
2021/12/11 01:42:11;;;;;;;9.40;5.30;;;6.50;99.90;;;;;;5032658;28;20018;-81
2021/12/11 01:44:39;;;;;;;8.38;5.65;;;6.50;99.90;;;;;;5031480;28;20033;-80
2021/12/11 01:47:12;;;;;;;9.10;5.47;;;6.40;99.90;;;;;;5032747;28;20060;-73
2021/12/11 01:49:41;;;;;;;9.82;6.43;;;6.50;99.90;;;;;;5032449;28;20029;-81
2021/12/11 01:52:15;;;;;;;9.57;6.32;;;6.50;99.90;;;;;;5032544;28;20132;-81
2021/12/11 01:54:44;;;;;;;7.57;5.10;;;6.60;99.90;;;;;;5033170;28;20041;-81
2021/12/11 01:57:23;;;;;;;9.50;6.35;;;6.60;99.90;;;;;;5032005;28;20017;-81
2021/12/11 02:00:08;;;;;;;13.30;6.18;;;6.60;99.90;;;;;;5032739;28;20021;-73
2021/12/11 02:02:38;;;;;;;7.63;5.93;;;6.50;99.90;;;;;;5032601;28;20026;-82
2021/12/11 02:05:07;;;;;;;9.38;6.47;;;6.40;99.90;;;;;;5031848;28;20359;-80
2021/12/11 02:07:47;;;;;;;11.45;7.00;;;6.30;99.90;;;;;;5032065;28;20029;-82
2021/12/11 02:10:26;;;;;;;11.90;7.88;;;6.20;99.90;;;;;;5032308;28;20068;-79
2021/12/11 02:12:53;;;;;;;11.80;7.22;;;6.20;99.90;;;;;;5032120;28;20048;-81
2021/12/11 02:15:29;;;;;;;12.82;8.20;;;6.10;99.90;;;;;;5032319;28;20018;-78
2021/12/11 02:18:10;;;;;;;17.20;8.82;;;6.00;99.90;;;;;;5032291;28;20030;-75
2021/12/11 02:20:58;;;;;;;12.07;7.90;;;5.80;99.90;;;;;;5032562;28;20025;-78
2021/12/11 02:23:25;;;;;;;13.85;8.75;;;5.70;99.90;;;;;;5021934;28;20041;-82
2021/12/11 02:25:54;;;;;;;10.65;7.38;;;5.60;99.90;;;;;;5032540;28;20051;-79
2021/12/11 02:28:43;;;;;;;13.23;8.07;;;5.50;99.90;;;;;;5032626;28;20172;-80
2021/12/11 02:31:27;;;;;;;11.40;7.82;;;5.40;99.90;;;;;;5032436;28;20029;-78
2021/12/11 02:33:58;;;;;;;11.32;7.53;;;5.40;99.90;;;;;;5032170;28;20026;-73
2021/12/11 02:36:33;;;;;;;11.75;7.25;;;5.40;99.90;;;;;;5032626;28;20053;-80
2021/12/11 02:39:07;;;;;;;9.38;6.75;;;5.40;99.90;;;;;;5032546;28;20029;-77
2021/12/11 02:41:39;;;;;;;11.52;6.15;;;5.40;99.90;;;;;;5032075;28;20025;-79
2021/12/11 02:44:15;;;;;;;10.82;6.57;;;5.40;99.90;;;;;;5032191;28;20036;-77
2021/12/11 02:46:49;;;;;;;11.30;6.72;;;5.40;99.90;;;;;;5032194;28;20397;-76
2021/12/11 02:49:24;;;;;;;12.93;7.45;;;5.30;99.90;;;;;;5032059;28;20386;-77
2021/12/11 02:51:57;;;;;;;9.63;6.55;;;5.30;99.90;;;;;;5032026;28;20040;-80
2021/12/11 02:54:56;;;;;;;8.20;6.03;;;5.30;99.90;;;;;;5031961;28;20033;-77
2021/12/11 02:57:29;;;;;;;11.35;7.38;;;5.30;99.90;;;;;;4979522;28;20453;-78
2021/12/11 02:59:55;;;;;;;13.50;7.30;;;5.30;99.90;;;;;;5031968;28;20026;-80
2021/12/11 03:02:26;;;;;;;10.02;6.20;;;5.20;99.90;;;;;;5032276;28;20030;-79
2021/12/11 03:04:56;;;;;;;9.83;6.43;;;5.20;99.90;;;;;;5032312;28;20104;-79
2021/12/11 03:07:34;;;;;;;12.90;7.10;;;5.20;99.90;;;;;;5031802;28;20304;-77
2021/12/11 03:10:01;;;;;;;9.50;6.57;;;5.30;99.90;;;;;;5035652;28;20029;-80
2021/12/11 03:12:26;;;;;;;9.75;6.70;;;5.30;99.90;;;;;;5035329;28;20028;-74
2021/12/11 03:14:52;;;;;;;10.02;6.47;;;5.30;99.90;;;;;;5035275;28;20018;-80
2021/12/11 03:17:21;;;;;;;9.73;6.80;;;5.40;99.90;;;;;;5035636;28;20116;-77
2021/12/11 03:19:47;;;;;;;12.98;7.28;;;5.40;99.90;;;;;;5035576;28;20025;-80
2021/12/11 03:22:17;;;;;;;12.57;7.65;;;5.40;99.90;;;;;;5035139;28;20079;-80
2021/12/11 03:24:44;;;;;;;10.00;6.78;;;5.40;99.90;;;;;;5035092;28;20034;-78
2021/12/11 03:27:09;;;;;;;12.85;8.23;;;5.30;99.90;;;;;;5035283;28;20067;-78
2021/12/11 03:29:36;;;;;;;12.25;8.32;;;5.20;99.90;;;;;;5035048;28;20045;-75
2021/12/11 03:32:05;;;;;;;15.07;9.75;;;5.20;99.90;;;;;;5035513;28;20508;-80
2021/12/11 03:34:30;;;;;;;17.08;10.55;;;5.20;99.90;;;;;;5035359;28;20021;-81
2021/12/11 03:36:59;;;;;;;19.65;11.68;;;5.10;99.90;;;;;;5035289;28;20436;-74
2021/12/11 03:39:32;;;;;;;21.23;12.48;;;5.00;99.90;;;;;;5035340;28;20032;-79
2021/12/11 03:42:00;;;;;;;25.23;13.38;;;5.00;99.90;;;;;;5034820;28;20029;-80
2021/12/11 03:44:32;;;;;;;29.40;15.07;;;4.80;99.90;;;;;;5034692;28;20033;-75
2021/12/11 03:46:58;;;;;;;;;;;4.80;99.90;;;;;;5033814;28;20029;-77
2021/12/11 03:49:24;;;;;;;32.05;15.80;;;4.70;99.90;;;;;;5033531;28;19913;-79
2021/12/11 03:51:53;;;;;;;25.23;14.88;;;4.60;99.90;;;;;;5033619;28;20030;-80
2021/12/11 03:54:26;;;;;;;30.85;16.02;;;4.60;99.90;;;;;;5033847;28;20029;-78
2021/12/11 03:56:52;;;;;;;27.90;16.00;;;4.60;99.90;;;;;;5033460;28;20025;-81
2021/12/11 03:59:18;;;;;;;24.95;14.52;;;4.60;99.90;;;;;;5033570;28;20025;-78
2021/12/11 04:01:58;;;;;;;29.23;15.90;;;4.70;99.90;;;;;;5034280;28;20371;-74
2021/12/11 04:04:32;;;;;;;24.88;13.63;;;4.70;99.90;;;;;;5032773;28;20026;-80
2021/12/11 04:07:00;;;;;;;25.85;13.63;;;4.70;99.90;;;;;;5032672;28;20068;-80
2021/12/11 04:09:27;;;;;;;19.95;12.05;;;4.80;99.90;;;;;;5033015;28;20801;-80
2021/12/11 04:11:54;;;;;;;27.83;14.68;;;4.90;99.90;;;;;;5033055;28;20112;-79
2021/12/11 04:14:24;;;;;;;20.20;11.60;;;4.90;99.90;;;;;;5033202;28;20730;-78
2021/12/11 04:16:51;;;;;;;23.38;11.05;;;5.10;99.90;;;;;;5033019;28;20100;-79
2021/12/11 04:19:17;;;;;;;19.92;11.10;;;5.10;99.90;;;;;;5034415;28;20424;-81
2021/12/11 04:21:43;;;;;;;20.20;11.30;;;5.20;99.90;;;;;;5033606;28;20029;-77
2021/12/11 04:24:11;;;;;;;19.17;9.85;;;5.20;99.90;;;;;;5034543;28;20037;-74
2021/12/11 04:26:37;;;;;;;20.17;11.20;;;5.30;99.90;;;;;;5034366;28;20470;-76
2021/12/11 04:29:04;;;;;;;21.17;10.13;;;5.40;99.90;;;;;;5034228;28;20030;-77
2021/12/11 04:31:32;;;;;;;24.83;11.40;;;5.30;99.90;;;;;;5034322;28;20024;-77
2021/12/11 04:34:03;;;;;;;18.20;10.45;;;5.40;99.90;;;;;;5034302;28;20041;-75
2021/12/11 04:36:38;;;;;;;17.58;10.43;;;5.30;99.90;;;;;;5034174;28;20017;-79
2021/12/11 04:39:07;;;;;;;20.30;11.25;;;5.30;99.90;;;;;;5034497;28;20021;-77
2021/12/11 04:41:42;;;;;;;18.23;10.50;;;5.20;99.90;;;;;;5033895;28;20382;-74
2021/12/11 04:44:13;;;;;;;15.52;9.93;;;5.30;99.90;;;;;;5034320;28;20053;-78
2021/12/11 04:46:38;;;;;;;17.50;10.40;;;5.40;99.90;;;;;;5034011;28;20025;-77
2021/12/11 04:49:17;;;;;;;19.10;10.55;;;5.50;99.90;;;;;;5032793;28;20397;-74
2021/12/11 04:57:11;;;;;;;16.70;8.95;;;5.50;99.90;;;;;;5034111;28;20021;-74
2021/12/11 05:08:02;;;;;;;14.68;9.10;;;5.80;99.90;;;;;;5033387;28;20036;-74
2021/12/11 05:10:42;;;;;;;14.57;8.30;;;5.90;99.90;;;;;;5033558;28;20044;-79
2021/12/11 05:13:08;;;;;;;13.02;7.28;;;6.00;99.90;;;;;;5033460;28;20018;-79
2021/12/11 05:15:39;;;;;;;14.05;7.85;;;6.20;99.90;;;;;;5033296;28;20021;-79
2021/12/11 05:18:09;;;;;;;13.52;7.78;;;6.40;99.90;;;;;;5033312;28;20026;-76
2021/12/11 05:20:37;;;;;;;17.00;7.90;;;6.50;99.90;;;;;;5015416;28;20080;-81
2021/12/11 05:23:03;;;;;;;15.63;8.70;;;6.60;99.90;;;;;;5033390;28;20035;-77
2021/12/11 05:25:29;;;;;;;14.25;8.23;;;6.60;99.90;;;;;;5033451;28;20026;-77
2021/12/11 05:27:56;;;;;;;14.60;8.90;;;6.60;99.90;;;;;;5033328;28;20028;-79
2021/12/11 05:30:35;;;;;;;14.13;7.90;;;6.50;99.90;;;;;;5032991;28;20033;-79
2021/12/11 05:33:01;;;;;;;16.08;8.18;;;6.50;99.90;;;;;;5032483;28;20017;-80
2021/12/11 05:35:30;;;;;;;11.70;8.15;;;6.40;99.90;;;;;;5033121;28;20473;-82
2021/12/11 05:37:57;;;;;;;14.63;7.70;;;6.40;99.90;;;;;;5031474;28;20032;-74
2021/12/11 05:40:24;;;;;;;14.65;8.48;;;6.40;99.90;;;;;;5033272;28;20041;-78
2021/12/11 05:42:51;;;;;;;14.50;9.10;;;6.40;99.90;;;;;;5032970;28;20485;-75
2021/12/11 05:45:16;;;;;;;15.77;8.90;;;6.30;99.90;;;;;;5033072;28;20128;-79
2021/12/11 05:47:43;;;;;;;15.70;9.20;;;6.20;99.90;;;;;;5033032;28;20140;-77
2021/12/11 05:50:15;;;;;;;13.38;7.97;;;6.10;99.90;;;;;;5032509;28;20060;-80
2021/12/11 05:52:41;;;;;;;14.05;8.57;;;6.00;99.90;;;;;;5032499;28;20049;-80
2021/12/11 05:55:10;;;;;;;17.80;10.57;;;6.10;99.90;;;;;;5031136;28;20030;-76
2021/12/11 05:57:37;;;;;;;17.42;9.38;;;6.10;99.90;;;;;;5032371;28;20488;-76
2021/12/11 06:00:11;;;;;;;17.00;9.07;;;6.00;99.90;;;;;;5032206;28;20028;-75
2021/12/11 06:02:37;;;;;;;15.98;8.55;;;6.00;99.90;;;;;;5032680;28;20029;-79
2021/12/11 06:05:03;;;;;;;14.90;8.55;;;6.10;99.90;;;;;;5032530;28;20030;-76
2021/12/11 06:07:30;;;;;;;13.90;8.00;;;6.00;99.90;;;;;;5032414;28;20025;-74
2021/12/11 06:10:05;;;;;;;11.13;6.47;;;6.00;99.90;;;;;;5032454;28;20064;-81
2021/12/11 06:12:31;;;;;;;9.98;6.28;;;6.20;99.90;;;;;;5032501;28;20030;-82
2021/12/11 06:14:57;;;;;;;7.95;5.43;;;6.30;99.90;;;;;;5032637;28;20112;-78
2021/12/11 06:17:28;;;;;;;12.15;6.28;;;6.40;99.90;;;;;;5032410;28;20025;-76
2021/12/11 06:19:56;;;;;;;9.82;5.95;;;6.50;99.90;;;;;;5031095;28;20029;-80
2021/12/11 06:22:27;;;;;;;8.18;4.90;;;6.60;99.90;;;;;;5030432;28;20124;-80
2021/12/11 06:24:55;;;;;;;9.68;5.93;;;6.70;99.90;;;;;;5031050;28;20378;-74
2021/12/11 06:27:21;;;;;;;8.18;5.18;;;6.80;99.90;;;;;;5031879;28;20033;-81
2021/12/11 06:29:46;;;;;;;9.45;5.82;;;6.70;99.90;;;;;;5032059;28;20120;-81
2021/12/11 06:32:12;;;;;;;8.82;5.47;;;6.70;99.90;;;;;;5029757;28;20060;-81
2021/12/11 06:34:38;;;;;;;11.02;5.93;;;6.80;99.90;;;;;;5029886;28;20025;-80
2021/12/11 06:37:07;;;;;;;9.13;5.65;;;6.70;99.90;;;;;;5031801;28;20022;-75
2021/12/11 06:39:33;;;;;;;9.02;5.88;;;6.70;99.90;;;;;;5031584;28;20063;-76
2021/12/11 06:42:02;;;;;;;10.20;5.85;;;6.70;99.90;;;;;;5031598;28;20021;-77
2021/12/11 06:44:28;;;;;;;10.70;7.00;;;6.70;99.90;;;;;;5034981;28;20513;-77
2021/12/11 06:46:59;;;;;;;19.48;6.72;;;6.60;99.90;;;;;;5035838;28;20413;-76
2021/12/11 06:49:26;;;;;;;10.23;6.20;;;6.60;99.90;;;;;;5035809;28;20025;-79
2021/12/11 06:51:53;;;;;;;11.50;6.72;;;6.60;99.90;;;;;;5036245;28;20555;-76
2021/12/11 06:54:19;;;;;;;12.23;6.00;;;6.60;99.90;;;;;;5036159;28;20040;-80
2021/12/11 06:56:45;;;;;;;7.85;5.85;;;6.60;99.90;;;;;;5036060;28;20018;-80
2021/12/11 06:59:11;;;;;;;9.60;6.20;;;6.70;99.90;;;;;;5034766;28;20036;-77
2021/12/11 07:01:38;;;;;;;9.50;5.97;;;6.70;99.90;;;;;;5035894;28;20339;-80
2021/12/11 07:04:07;;;;;;;14.13;6.53;;;6.80;99.90;;;;;;5035785;28;20032;-79
2021/12/11 07:06:34;;;;;;;11.65;6.47;;;6.90;99.90;;;;;;5034502;28;20022;-80
2021/12/11 07:09:02;;;;;;;8.30;5.13;;;6.80;99.90;;;;;;5035768;28;20033;-78
2021/12/11 07:11:28;;;;;;;12.73;7.10;;;6.90;99.90;;;;;;5035762;28;20041;-78
2021/12/11 07:13:54;;;;;;;8.13;4.53;;;7.00;99.90;;;;;;5036609;28;20033;-80
2021/12/11 07:16:20;;;;;;;10.13;5.65;;;7.10;99.90;;;;;;5035762;28;20064;-79
2021/12/11 07:18:46;;;;;;;12.65;6.95;;;7.20;99.90;;;;;;5035066;28;20674;-82
2021/12/11 07:21:12;;;;;;;10.55;6.53;;;7.00;99.90;;;;;;5035214;28;20083;-79
2021/12/11 07:23:44;;;;;;;9.65;5.80;;;7.00;99.90;;;;;;5033466;28;20103;-81
2021/12/11 07:26:16;;;;;;;8.63;5.88;;;7.00;99.90;;;;;;5034168;28;20030;-76
2021/12/11 07:28:53;;;;;;;13.90;7.10;;;7.00;99.90;;;;;;5034665;28;20038;-80
2021/12/11 07:31:19;;;;;;;7.68;5.30;;;7.00;99.90;;;;;;5034818;28;20116;-79
2021/12/11 07:33:45;;;;;;;10.23;6.63;;;7.10;99.90;;;;;;5035385;28;20032;-78
2021/12/11 07:36:11;;;;;;;11.48;6.25;;;7.10;99.90;;;;;;5033785;28;20456;-80
2021/12/11 07:38:37;;;;;;;10.02;5.85;;;7.10;99.90;;;;;;5035247;28;20355;-77
2021/12/11 07:41:08;;;;;;;9.75;5.93;;;7.10;99.90;;;;;;5035082;28;20029;-77
2021/12/11 07:43:35;;;;;;;10.83;6.53;;;7.30;99.90;;;;;;5035042;28;20020;-81
2021/12/11 07:46:03;;;;;;;9.23;5.40;;;7.30;99.90;;;;;;5034818;28;20038;-80
2021/12/11 07:48:29;;;;;;;11.70;6.22;;;7.30;99.90;;;;;;5034739;28;20104;-76
2021/12/11 07:50:55;;;;;;;13.07;7.78;;;7.20;99.90;;;;;;5034484;28;20052;-74
2021/12/11 07:53:22;;;;;;;16.02;8.73;;;7.10;99.90;;;;;;5034625;28;20528;-75
2021/12/11 07:55:48;;;;;;;12.45;6.68;;;7.00;99.90;;;;;;5033948;28;20030;-78
2021/12/11 07:58:14;;;;;;;13.82;6.80;;;7.00;99.90;;;;;;5034985;28;20029;-80
2021/12/11 08:00:41;;;;;;;17.95;9.00;;;7.00;99.90;;;;;;5034682;28;20032;-77
2021/12/11 08:03:09;;;;;;;16.67;8.43;;;6.90;99.90;;;;;;5034577;28;20083;-82
2021/12/11 08:05:35;;;;;;;15.77;8.38;;;6.90;99.90;;;;;;5034712;28;20486;-78
2021/12/11 08:08:05;;;;;;;13.82;8.02;;;6.90;99.90;;;;;;5034675;28;20060;-81
2021/12/11 08:10:33;;;;;;;13.75;7.72;;;6.90;99.90;;;;;;5033515;28;20509;-81
2021/12/11 08:13:01;;;;;;;15.05;8.98;;;7.00;99.90;;;;;;5034100;28;20465;-82
2021/12/11 08:15:28;;;;;;;12.40;7.60;;;6.90;99.90;;;;;;5034260;28;20014;-80
2021/12/11 08:17:54;;;;;;;12.02;7.22;;;6.90;99.90;;;;;;5033739;28;20366;-78
2021/12/11 08:20:25;;;;;;;18.35;9.95;;;7.00;99.90;;;;;;5034406;28;20159;-78
2021/12/11 08:22:52;;;;;;;15.35;8.95;;;6.90;99.90;;;;;;5034480;28;20549;-81
2021/12/11 08:25:21;;;;;;;20.85;10.07;;;6.90;99.90;;;;;;5033725;28;20112;-74
2021/12/11 08:27:48;;;;;;;16.67;9.13;;;6.80;99.90;;;;;;5033948;28;20381;-76
2021/12/11 08:30:15;;;;;;;15.43;8.65;;;6.70;99.90;;;;;;5033976;28;20099;-80
2021/12/11 08:32:41;;;;;;;14.85;8.70;;;6.70;99.90;;;;;;5030898;28;20083;-76
2021/12/11 08:35:10;;;;;;;21.85;10.57;;;6.80;99.90;;;;;;5033476;28;20025;-75
2021/12/11 08:37:37;;;;;;;19.52;10.15;;;6.80;99.90;;;;;;5032340;28;20048;-77
2021/12/11 08:40:13;;;;;;;17.00;10.07;;;6.70;99.90;;;;;;5033397;28;20036;-74
2021/12/11 08:42:39;;;;;;;14.15;8.23;;;6.70;99.90;;;;;;5030530;28;20021;-78
2021/12/11 08:45:09;;;;;;;14.68;8.90;;;6.80;99.90;;;;;;5033024;28;20033;-80
2021/12/11 08:47:39;;;;;;;16.30;8.23;;;6.80;99.90;;;;;;5033569;28;20401;-82
2021/12/11 08:50:09;;;;;;;16.65;9.32;;;7.10;99.90;;;;;;5028153;28;20033;-79
2021/12/11 08:52:40;;;;;;;18.23;10.38;;;7.00;99.90;;;;;;5027431;28;20509;-81
2021/12/11 08:55:15;;;;;;;18.77;9.63;;;6.90;99.90;;;;;;5035676;28;20029;-79
2021/12/11 08:57:41;;;;;;;15.50;8.60;;;6.80;99.90;;;;;;5033641;28;20121;-79
2021/12/11 09:00:19;;;;;;;16.65;9.57;;;7.10;99.90;;;;;;5034173;28;20028;-75
2021/12/11 09:02:54;;;;;;;21.30;9.50;;;7.00;99.90;;;;;;5034036;28;20030;-75
2021/12/11 09:05:30;;;;;;;18.73;10.38;;;7.00;99.90;;;;;;5033711;28;20079;-74
2021/12/11 09:08:05;;;;;;;18.55;9.82;;;6.80;99.90;;;;;;5032201;28;20506;-80
2021/12/11 09:10:35;;;;;;;20.38;10.75;;;6.80;99.90;;;;;;5034941;28;20041;-74
2021/12/11 09:13:15;;;;;;;19.15;10.45;;;6.70;99.90;;;;;;5033374;28;20416;-75
2021/12/11 09:16:02;;;;;;;21.23;12.32;;;6.70;99.90;;;;;;5033584;28;20072;-74
2021/12/11 09:18:35;;;;;;;19.52;9.60;;;6.60;99.90;;;;;;5033505;28;20082;-81
2021/12/11 09:21:06;;;;;;;18.30;10.80;;;6.60;99.90;;;;;;5033858;28;20032;-81
2021/12/11 09:23:42;;;;;;;21.35;10.57;;;6.60;99.90;;;;;;5032288;28;20022;-77
2021/12/11 09:26:17;;;;;;;20.40;9.82;;;6.60;99.90;;;;;;5034404;28;20037;-77
2021/12/11 09:28:49;;;;;;;21.38;10.60;;;6.50;99.90;;;;;;5031847;28;20438;-80
2021/12/11 09:31:23;;;;;;;17.40;10.43;;;6.50;99.90;;;;;;5031562;28;20021;-79
2021/12/11 09:34:06;;;;;;;18.85;8.70;;;6.50;99.90;;;;;;5029943;28;20103;-78
2021/12/11 09:36:37;;;;;;;21.60;10.43;;;6.60;99.90;;;;;;5012941;28;20030;-75
2021/12/11 09:39:12;;;;;;;16.13;8.32;;;6.60;99.90;;;;;;5030786;28;20028;-80
2021/12/11 09:41:37;;;;;;;19.08;10.25;;;6.70;99.90;;;;;;5029227;28;20026;-79
2021/12/11 09:44:07;;;;;;;18.85;9.95;;;6.70;99.90;;;;;;5033851;28;20032;-75
2021/12/11 09:46:42;;;;;;;19.98;10.73;;;6.70;99.90;;;;;;5031114;28;20018;-79
2021/12/11 09:49:11;;;;;;;19.15;10.80;;;6.60;99.90;;;;;;5026087;28;20552;-74
2021/12/11 09:51:41;;;;;;;19.58;10.50;;;6.50;99.90;;;;;;5032835;28;20470;-75
2021/12/11 09:54:13;;;;;;;22.33;10.63;;;6.50;99.90;;;;;;5030841;28;20034;-79
2021/12/11 09:56:47;;;;;;;22.35;10.75;;;6.50;99.90;;;;;;5031119;28;20037;-79
2021/12/11 09:59:17;;;;;;;17.85;10.23;;;6.50;99.90;;;;;;5031443;28;20521;-76
2021/12/11 10:01:47;;;;;;;18.42;10.70;;;6.60;99.90;;;;;;5032559;28;20446;-75
2021/12/11 10:04:20;;;;;;;17.17;9.07;;;6.60;99.90;;;;;;5028471;28;20026;-77
2021/12/11 10:09:41;;;;;;;21.30;10.45;;;6.70;99.90;;;;;;5030176;28;20029;-76
2021/12/11 10:12:13;;;;;;;19.67;9.32;;;6.70;99.90;;;;;;5032411;28;20385;-72
2021/12/11 10:14:48;;;;;;;16.83;9.40;;;6.70;99.90;;;;;;5030710;28;20029;-79
2021/12/11 10:17:27;;;;;;;16.42;9.38;;;6.80;99.90;;;;;;5032095;28;20021;-79
2021/12/11 10:19:56;;;;;;;15.30;8.95;;;6.80;99.90;;;;;;5034854;28;20033;-80
2021/12/11 10:22:27;;;;;;;17.23;10.52;;;6.80;99.90;;;;;;5034855;28;20076;-74
2021/12/11 10:24:53;;;;;;;17.70;8.73;;;6.80;99.90;;;;;;5034777;28;20026;-79
2021/12/11 10:27:22;;;;;;;17.35;8.23;;;6.80;99.90;;;;;;5032871;28;20068;-78
2021/12/11 10:29:50;;;;;;;17.60;9.25;;;6.80;99.90;;;;;;5032384;28;20061;-75
2021/12/11 10:32:21;;;;;;;18.65;8.90;;;6.90;99.90;;;;;;5035707;28;20470;-77
2021/12/11 10:34:50;;;;;;;14.95;8.00;;;6.90;99.90;;;;;;5031470;28;20056;-81
2021/12/11 10:37:36;;;;;;;15.65;8.73;;;6.90;99.90;;;;;;5026774;28;20049;-77
2021/12/11 10:40:25;;;;;;;14.57;8.68;;;6.90;99.90;;;;;;5034055;28;20358;-79
2021/12/11 10:43:02;;;;;;;18.00;9.38;;;6.90;99.90;;;;;;5035380;28;20420;-73
2021/12/11 10:45:29;;;;;;;16.67;8.60;;;6.90;99.90;;;;;;5034905;28;20036;-74
2021/12/11 10:48:02;;;;;;;17.48;9.32;;;6.90;99.90;;;;;;5031777;28;20033;-76
2021/12/11 10:50:36;;;;;;;19.65;9.23;;;6.90;99.90;;;;;;5033619;28;20022;-83
2021/12/11 10:53:05;;;;;;;12.80;7.50;;;6.80;99.90;;;;;;5032559;28;20133;-79
2021/12/11 10:55:32;;;;;;;16.10;8.60;;;6.90;99.90;;;;;;5034258;28;20032;-79
2021/12/11 10:58:01;;;;;;;18.77;8.75;;;7.00;99.90;;;;;;5033516;28;20051;-78
2021/12/11 11:00:38;;;;;;;17.08;8.05;;;7.00;99.90;;;;;;5032013;28;20040;-73
2021/12/11 11:03:06;;;;;;;17.52;9.25;;;7.00;99.90;;;;;;5032490;28;20034;-74
2021/12/11 11:05:34;;;;;;;17.40;8.40;;;7.00;99.90;;;;;;5032904;28;20533;-76
2021/12/11 11:08:03;;;;;;;17.85;9.70;;;7.00;99.90;;;;;;5034991;28;21093;-75
2021/12/11 11:10:32;;;;;;;14.63;9.05;;;7.00;99.90;;;;;;5034918;28;20033;-76
2021/12/11 11:13:01;;;;;;;14.07;8.35;;;7.00;99.90;;;;;;5034705;28;20462;-75
2021/12/11 11:15:29;;;;;;;17.58;9.85;;;7.00;99.90;;;;;;5034137;28;20068;-79
2021/12/11 11:17:55;;;;;;;16.23;8.88;;;7.00;99.90;;;;;;5033382;28;20052;-76
2021/12/11 11:20:28;;;;;;;14.23;8.70;;;7.00;99.90;;;;;;5034810;28;20033;-72
2021/12/11 11:22:55;;;;;;;13.73;8.07;;;7.00;99.90;;;;;;5033923;28;20366;-75
2021/12/11 11:25:25;;;;;;;15.02;8.57;;;6.90;99.90;;;;;;5033694;28;20057;-77
2021/12/11 11:27:57;;;;;;;18.55;9.23;;;7.00;99.90;;;;;;5033320;28;20071;-78
2021/12/11 11:30:28;;;;;;;16.08;8.25;;;6.90;99.90;;;;;;5033565;28;20064;-76
2021/12/11 11:32:55;;;;;;;14.40;8.33;;;6.90;99.90;;;;;;5034287;28;20356;-76
2021/12/11 11:35:25;;;;;;;19.60;8.90;;;6.90;99.90;;;;;;5033270;28;20030;-79
2021/12/11 11:37:54;;;;;;;13.50;7.95;;;6.90;99.90;;;;;;5033749;28;20061;-81
2021/12/11 11:40:25;;;;;;;18.20;8.85;;;6.90;99.90;;;;;;5034433;28;20022;-75
2021/12/11 11:42:51;;;;;;;12.57;7.40;;;6.90;99.90;;;;;;5034271;28;20037;-78
2021/12/11 11:45:18;;;;;;;14.95;8.05;;;6.90;99.90;;;;;;5033209;28;20544;-85
2021/12/11 11:47:44;;;;;;;16.45;9.35;;;6.90;99.90;;;;;;5034269;28;20018;-78
2021/12/11 11:50:14;;;;;;;14.90;8.85;;;6.90;99.90;;;;;;5034282;28;20047;-84
2021/12/11 11:52:41;;;;;;;15.13;8.15;;;6.90;99.90;;;;;;5034083;28;20053;-79
2021/12/11 11:55:16;;;;;;;16.25;8.70;;;6.90;99.90;;;;;;5034254;28;20018;-81
2021/12/11 11:57:50;;;;;;;15.27;8.70;;;6.90;99.90;;;;;;5034079;28;20017;-79
2021/12/11 12:00:48;;;;;;;12.30;7.97;;;6.80;99.90;;;;;;5033308;28;20022;-77
2021/12/11 12:03:18;;;;;;;14.18;8.52;;;6.90;99.90;;;;;;5021575;28;20044;-82
2021/12/11 12:05:47;;;;;;;14.70;8.98;;;6.90;99.90;;;;;;5034099;28;20055;-82
2021/12/11 12:08:15;;;;;;;14.98;8.93;;;6.90;99.90;;;;;;5031598;28;20038;-79
2021/12/11 12:10:43;;;;;;;16.08;7.85;;;6.90;99.90;;;;;;5031870;28;20032;-79
2021/12/11 12:13:11;;;;;;;19.55;10.30;;;6.90;99.90;;;;;;5033180;28;20028;-81
2021/12/11 12:15:45;;;;;;;12.82;7.75;;;6.90;99.90;;;;;;5033074;28;20025;-74
2021/12/11 12:18:11;;;;;;;16.20;8.75;;;7.00;99.90;;;;;;5032889;28;20064;-82
2021/12/11 12:20:41;;;;;;;15.45;8.45;;;7.00;99.90;;;;;;5032510;28;20016;-78
2021/12/11 12:23:09;;;;;;;13.80;7.95;;;7.00;99.90;;;;;;5032488;28;20025;-72
2021/12/11 12:25:36;;;;;;;12.95;7.85;;;7.00;99.90;;;;;;5031462;28;20478;-73
2021/12/11 12:28:03;;;;;;;16.08;9.15;;;7.00;99.90;;;;;;5032743;28;20029;-82
2021/12/11 12:30:59;;;;;;;19.70;8.45;;;7.00;99.90;;;;;;5033000;28;20033;-76
2021/12/11 12:33:28;;;;;;;14.00;7.95;;;7.00;99.90;;;;;;5032747;28;20646;-79
2021/12/11 12:35:54;;;;;;;13.57;8.40;;;7.00;99.90;;;;;;5017192;28;20052;-81
2021/12/11 12:38:23;;;;;;;15.07;8.32;;;6.90;99.90;;;;;;5033066;28;20548;-81
2021/12/11 12:41:00;;;;;;;15.35;8.05;;;6.90;99.90;;;;;;5030466;28;20078;-76
2021/12/11 12:46:29;;;;;;;12.93;8.25;;;6.90;99.90;;;;;;5032798;28;20033;-77
2021/12/11 12:48:56;;;;;;;14.03;8.27;;;6.80;99.90;;;;;;5032900;28;20043;-84
2021/12/11 12:51:24;;;;;;;17.63;9.18;;;6.80;99.90;;;;;;5031918;28;20711;-77
2021/12/11 12:53:50;;;;;;;13.95;8.10;;;6.80;99.90;;;;;;5032618;28;20489;-79
2021/12/11 12:56:28;;;;;;;16.65;8.82;;;6.70;99.90;;;;;;5033155;28;20104;-74
2021/12/11 12:59:02;;;;;;;17.13;9.07;;;6.80;99.90;;;;;;5029423;28;20025;-82
2021/12/11 13:01:57;;;;;;;17.50;8.63;;;6.80;99.90;;;;;;5031157;28;20035;-78
2021/12/11 13:04:29;;;;;;;18.55;10.25;;;6.80;99.90;;;;;;5029447;28;20041;-76
2021/12/11 13:06:57;;;;;;;17.20;9.82;;;6.80;99.90;;;;;;5034170;28;20105;-84
2021/12/11 13:09:41;;;;;;;14.27;8.10;;;6.70;99.90;;;;;;5031881;28;20069;-74
2021/12/11 13:12:22;;;;;;;17.15;8.65;;;6.70;99.90;;;;;;5048488;28;20018;-78
2021/12/11 13:14:50;;;;;;;17.50;8.70;;;6.70;99.90;;;;;;5040624;28;20024;-83
2021/12/11 13:17:27;;;;;;;18.33;9.57;;;6.70;99.90;;;;;;5039271;28;20021;-79
2021/12/11 13:19:58;;;;;;;14.00;8.35;;;6.70;99.90;;;;;;5048409;28;20025;-80
2021/12/11 13:22:32;;;;;;;16.50;9.35;;;6.70;99.90;;;;;;5037496;28;20369;-74
2021/12/11 13:25:07;;;;;;;14.85;8.52;;;6.60;99.90;;;;;;5041894;28;20068;-82
2021/12/11 13:27:33;;;;;;;19.38;10.40;;;6.60;99.90;;;;;;5047050;28;20057;-82